createdAt,value
2022-12-29T00:00:07.402Z,5.26
2022-12-29T00:00:39.967Z,5.27
2022-12-29T00:00:52.933Z,5.33
2022-12-29T00:01:05.864Z,5.32
2022-12-29T00:01:19.135Z,5.29
2022-12-29T00:01:53.041Z,5.29
2022-12-29T00:02:25.695Z,5.34
2022-12-29T00:02:58.250Z,5.32
2022-12-29T00:03:11.145Z,5.34
2022-12-29T00:03:24.311Z,5.34
2022-12-29T00:03:57.648Z,5.35
2022-12-29T00:04:14.736Z,5.38
2022-12-29T00:05:13.542Z,5.46
2022-12-29T00:05:26.425Z,5.50
2022-12-29T00:06:01.216Z,5.53
2022-12-29T00:06:13.861Z,5.52
2022-12-29T00:06:46.448Z,5.49
2022-12-29T00:06:59.175Z,5.44
2022-12-29T00:07:12.340Z,5.43
2022-12-29T00:07:25.396Z,5.38
2022-12-29T00:07:38.273Z,5.39
2022-12-29T00:07:51.560Z,5.40
2022-12-29T00:08:04.941Z,5.41
2022-12-29T00:08:17.941Z,5.40
2022-12-29T00:08:43.107Z,5.40
2022-12-29T00:09:17.400Z,5.43
2022-12-29T00:09:49.969Z,5.43
2022-12-29T00:10:22.543Z,5.37
2022-12-29T00:10:35.531Z,5.42
2022-12-29T00:10:48.375Z,5.47
2022-12-29T00:11:02.293Z,5.48
2022-12-29T00:11:17.532Z,5.46
2022-12-29T00:11:30.390Z,5.52
2022-12-29T00:11:43.209Z,5.55
2022-12-29T00:11:56.136Z,5.54
2022-12-29T00:12:09.141Z,5.48
2022-12-29T00:12:22.014Z,5.45
2022-12-29T00:12:58.124Z,5.43
2022-12-29T00:13:50.277Z,5.37
2022-12-29T00:15:00.547Z,5.31
2022-12-29T00:15:39.047Z,5.40
2022-12-29T00:15:51.942Z,5.33
2022-12-29T00:16:05.067Z,5.31
2022-12-29T00:16:20.212Z,5.32
2022-12-29T00:16:33.873Z,5.36
2022-12-29T00:17:06.557Z,5.33
2022-12-29T00:17:39.158Z,5.33
2022-12-29T00:17:52.286Z,5.26
2022-12-29T00:18:05.342Z,5.25
2022-12-29T00:18:18.182Z,5.26
2022-12-29T00:18:31.420Z,5.24
2022-12-29T00:18:44.290Z,5.24
2022-12-29T00:18:57.171Z,5.26
2022-12-29T00:19:30.051Z,5.25
2022-12-29T00:20:21.671Z,5.22
2022-12-29T00:20:57.275Z,5.23
2022-12-29T00:22:06.901Z,5.26
2022-12-29T00:22:41.269Z,5.27
2022-12-29T00:39:37.383Z,5.62
2022-12-29T00:40:29.786Z,5.62
2022-12-29T00:41:22.437Z,5.21
2022-12-29T00:41:53.472Z,5.21
2022-12-29T01:06:59.323Z,5.71
2022-12-29T01:07:32.900Z,5.71
2022-12-29T01:07:45.841Z,5.29
2022-12-29T01:07:58.915Z,5.29
2022-12-29T01:08:31.493Z,5.24
2022-12-29T01:09:41.347Z,5.22
2022-12-29T01:10:20.464Z,5.22
2022-12-29T01:10:59.405Z,5.17
2022-12-29T01:11:12.796Z,5.12
2022-12-29T01:11:25.644Z,5.11
2022-12-29T01:11:59.623Z,5.13
2022-12-29T01:12:12.744Z,5.12
2022-12-29T01:12:45.947Z,5.13
2022-12-29T01:13:21.284Z,5.11
2022-12-29T01:13:53.807Z,5.13
2022-12-29T01:14:06.730Z,5.12
2022-12-29T01:14:20.206Z,5.16
2022-12-29T01:14:33.032Z,5.18
2022-12-29T01:14:45.825Z,5.23
2022-12-29T01:14:58.647Z,5.22
2022-12-29T01:15:31.382Z,5.17
2022-12-29T01:16:04.045Z,5.18
2022-12-29T01:16:37.464Z,5.21
2022-12-29T01:16:50.425Z,5.18
2022-12-29T01:17:23.152Z,5.18
2022-12-29T01:17:55.674Z,5.12
2022-12-29T01:18:28.342Z,5.14
2022-12-29T01:19:01.785Z,5.07
2022-12-29T01:19:34.296Z,5.08
2022-12-29T01:19:47.580Z,5.09
2022-12-29T01:20:00.499Z,5.10
2022-12-29T01:20:13.889Z,5.09
2022-12-29T01:20:28.615Z,5.09
2022-12-29T01:20:41.604Z,5.11
2022-12-29T01:21:14.320Z,5.07
2022-12-29T01:21:27.596Z,5.09
2022-12-29T01:21:40.429Z,5.09
2022-12-29T01:22:12.933Z,5.08
2022-12-29T01:22:26.634Z,5.06
2022-12-29T01:22:39.720Z,5.08
2022-12-29T01:22:52.683Z,5.08
2022-12-29T01:23:21.071Z,5.06
2022-12-29T01:23:38.482Z,5.06
2022-12-29T01:23:51.294Z,5.05
2022-12-29T01:24:04.404Z,5.09
2022-12-29T01:24:39.015Z,5.16
2022-12-29T01:25:11.563Z,5.14
2022-12-29T01:25:44.093Z,5.13
2022-12-29T01:26:17.305Z,5.12
2022-12-29T01:26:31.479Z,5.22
2022-12-29T01:26:44.343Z,5.23
2022-12-29T01:27:16.874Z,5.23
2022-12-29T01:27:30.913Z,5.23
2022-12-29T01:28:04.065Z,5.27
2022-12-29T01:28:25.687Z,5.23
2022-12-29T01:28:51.141Z,5.21
2022-12-29T01:29:23.681Z,5.16
2022-12-29T01:29:36.701Z,5.09
2022-12-29T01:29:49.744Z,5.09
2022-12-29T01:30:02.671Z,5.09
2022-12-29T01:30:53.835Z,5.11
2022-12-29T01:31:10.323Z,5.05
2022-12-29T01:31:42.894Z,5.07
2022-12-29T01:32:15.417Z,5.12
2022-12-29T01:32:47.957Z,5.12
2022-12-29T01:33:01.009Z,5.09
2022-12-29T01:33:14.369Z,5.12
2022-12-29T01:33:27.162Z,5.09
2022-12-29T01:33:40.020Z,5.08
2022-12-29T01:33:52.849Z,5.07
2022-12-29T01:34:25.359Z,5.08
2022-12-29T01:34:38.370Z,5.10
2022-12-29T01:34:51.189Z,5.09
2022-12-29T01:35:04.542Z,5.11
2022-12-29T01:35:17.448Z,5.07
2022-12-29T01:35:31.161Z,5.04
2022-12-29T01:35:44.127Z,5.02
2022-12-29T01:36:01.574Z,4.99
2022-12-29T01:36:16.234Z,5.03
2022-12-29T01:36:31.131Z,5.06
2022-12-29T01:36:44.179Z,5.11
2022-12-29T01:37:16.704Z,5.09
2022-12-29T01:37:49.287Z,5.10
2022-12-29T01:38:02.222Z,5.11
2022-12-29T01:38:15.041Z,5.08
2022-12-29T01:38:35.850Z,5.05
2022-12-29T01:38:48.504Z,5.02
2022-12-29T01:39:21.079Z,5.03
2022-12-29T01:39:33.728Z,5.06
2022-12-29T01:39:46.625Z,5.05
2022-12-29T01:40:19.199Z,5.00
2022-12-29T01:40:34.151Z,5.04
2022-12-29T01:41:07.554Z,5.00
2022-12-29T01:41:40.279Z,5.02
2022-12-29T01:41:53.128Z,5.05
2022-12-29T01:42:06.026Z,5.04
2022-12-29T01:42:38.755Z,5.05
2022-12-29T01:42:51.439Z,5.07
2022-12-29T01:43:05.479Z,5.13
2022-12-29T01:44:03.119Z,5.10
2022-12-29T01:45:00.403Z,5.08
2022-12-29T01:45:33.206Z,5.07
2022-12-29T01:45:51.215Z,5.09
2022-12-29T01:46:04.515Z,5.08
2022-12-29T01:46:26.214Z,5.08
2022-12-29T01:46:58.863Z,5.07
2022-12-29T01:47:49.829Z,5.07
2022-12-29T01:48:40.824Z,5.07
2022-12-29T01:49:14.851Z,5.07
2022-12-29T01:49:28.124Z,5.06
2022-12-29T01:50:13.773Z,5.07
2022-12-29T01:50:34.548Z,5.06
2022-12-29T01:51:07.603Z,5.02
2022-12-29T01:51:20.669Z,5.07
2022-12-29T01:51:34.834Z,5.08
2022-12-29T01:51:55.375Z,5.08
2022-12-29T01:52:28.107Z,5.09
2022-12-29T01:53:09.248Z,5.05
2022-12-29T01:53:41.829Z,5.08
2022-12-29T01:54:19.474Z,5.17
2022-12-29T01:54:52.545Z,5.11
2022-12-29T01:55:05.501Z,5.13
2022-12-29T01:55:41.093Z,5.13
2022-12-29T01:55:56.604Z,5.12
2022-12-29T01:56:29.445Z,5.13
2022-12-29T01:56:42.739Z,5.11
2022-12-29T01:57:06.556Z,5.09
2022-12-29T01:57:33.000Z,5.05
2022-12-29T01:58:06.088Z,5.05
2022-12-29T01:58:19.444Z,5.05
2022-12-29T01:58:35.025Z,5.08
2022-12-29T01:59:12.318Z,5.10
2022-12-29T01:59:25.896Z,5.13
2022-12-29T02:00:04.460Z,5.11
2022-12-29T02:00:37.246Z,5.04
2022-12-29T02:01:09.847Z,5.06
2022-12-29T02:01:22.880Z,5.07
2022-12-29T02:01:36.001Z,5.07
2022-12-29T02:02:08.534Z,5.12
2022-12-29T02:02:48.640Z,5.08
2022-12-29T02:03:01.709Z,5.10
2022-12-29T02:03:14.737Z,5.09
2022-12-29T02:03:27.929Z,5.10
2022-12-29T02:04:02.842Z,5.09
2022-12-29T02:04:35.349Z,5.07
2022-12-29T02:05:15.336Z,5.09
2022-12-29T02:05:48.113Z,5.05
2022-12-29T02:06:26.812Z,5.03
2022-12-29T02:07:19.616Z,5.06
2022-12-29T02:07:32.515Z,5.06
2022-12-29T02:08:05.386Z,5.08
2022-12-29T02:08:18.415Z,5.04
2022-12-29T02:08:51.876Z,5.02
2022-12-29T02:09:24.981Z,4.96
2022-12-29T02:09:57.718Z,4.97
2022-12-29T02:10:10.575Z,5.01
2022-12-29T02:10:24.474Z,4.99
2022-12-29T02:10:37.401Z,4.97
2022-12-29T02:10:50.209Z,4.98
2022-12-29T02:11:03.069Z,4.97
2022-12-29T02:11:35.777Z,4.96
2022-12-29T02:12:08.340Z,4.93
2022-12-29T02:12:21.381Z,4.90
2022-12-29T02:12:34.551Z,4.91
2022-12-29T02:13:07.509Z,4.93
2022-12-29T02:13:40.026Z,4.96
2022-12-29T02:13:52.676Z,4.92
2022-12-29T02:14:11.926Z,4.94
2022-12-29T02:14:24.655Z,4.94
2022-12-29T02:15:16.445Z,4.92
2022-12-29T02:16:15.908Z,5.01
2022-12-29T02:17:15.818Z,5.08
2022-12-29T02:18:01.357Z,5.01
2022-12-29T02:18:43.604Z,5.00
2022-12-29T02:19:14.915Z,4.95
2022-12-29T02:19:58.309Z,4.99
2022-12-29T02:20:45.242Z,5.03
2022-12-29T02:21:39.724Z,5.00
2022-12-29T02:22:10.851Z,4.94
2022-12-29T02:23:12.209Z,4.95
2022-12-29T02:23:43.925Z,4.90
2022-12-29T02:24:14.591Z,4.89
2022-12-29T02:25:10.763Z,4.94
2022-12-29T02:26:02.252Z,4.90
2022-12-29T02:26:34.773Z,4.84
2022-12-29T02:26:54.650Z,4.91
2022-12-29T02:27:58.255Z,4.94
2022-12-29T02:28:45.526Z,4.95
2022-12-29T02:29:04.400Z,4.93
2022-12-29T02:29:58.039Z,4.96
2022-12-29T02:30:33.272Z,4.93
2022-12-29T02:31:23.085Z,4.94
2022-12-29T02:31:36.167Z,4.96
2022-12-29T03:20:40.612Z,4.73
2022-12-29T03:21:20.663Z,4.70
2022-12-29T03:22:15.546Z,4.69
2022-12-29T03:22:49.160Z,4.71
2022-12-29T03:23:22.156Z,4.78
2022-12-29T03:23:55.056Z,4.73
2022-12-29T03:24:08.269Z,4.74
2022-12-29T03:24:43.270Z,4.77
2022-12-29T03:25:02.885Z,4.75
2022-12-29T03:25:37.945Z,4.75
2022-12-29T03:25:53.111Z,4.79
2022-12-29T03:26:26.060Z,4.77
2022-12-29T03:27:00.692Z,4.70
2022-12-29T03:27:38.247Z,4.71
2022-12-29T03:27:58.542Z,4.77
2022-12-29T03:28:18.551Z,4.74
2022-12-29T03:28:54.378Z,4.71
2022-12-29T03:29:28.803Z,4.67
2022-12-29T03:29:56.135Z,4.69
2022-12-29T03:30:29.780Z,4.71
2022-12-29T03:30:45.010Z,4.71
2022-12-29T03:31:17.935Z,4.77
2022-12-29T03:31:50.945Z,4.71
2022-12-29T03:32:27.089Z,4.70
2022-12-29T03:33:01.838Z,4.73
2022-12-29T03:33:34.604Z,4.78
2022-12-29T03:34:07.600Z,4.81
2022-12-29T03:34:40.274Z,4.83
2022-12-29T03:35:14.500Z,4.82
2022-12-29T03:35:47.398Z,4.81
2022-12-29T03:36:27.889Z,4.78
2022-12-29T03:37:03.807Z,4.84
2022-12-29T03:37:38.878Z,4.82
2022-12-29T03:38:21.363Z,4.80
2022-12-29T03:39:01.142Z,4.78
2022-12-29T03:39:34.769Z,4.80
2022-12-29T03:40:08.044Z,4.84
2022-12-29T03:40:46.681Z,4.85
2022-12-29T03:41:21.794Z,4.84
2022-12-29T03:41:34.612Z,4.81
2022-12-29T03:42:10.222Z,4.81
2022-12-29T03:42:43.161Z,4.84
2022-12-29T03:42:56.042Z,4.82
2022-12-29T03:43:30.508Z,4.80
2022-12-29T03:44:03.277Z,4.78
2022-12-29T03:44:40.385Z,4.75
2022-12-29T03:45:13.386Z,4.76
2022-12-29T03:45:46.342Z,4.77
2022-12-29T03:46:37.442Z,4.75
2022-12-29T03:47:11.771Z,4.75
2022-12-29T03:47:44.647Z,4.78
2022-12-29T03:47:57.500Z,4.80
2022-12-29T03:48:10.554Z,4.79
2022-12-29T03:48:23.432Z,4.80
2022-12-29T03:49:14.647Z,4.78
2022-12-29T03:49:47.418Z,4.77
2022-12-29T03:50:00.263Z,4.78
2022-12-29T03:50:13.931Z,4.78
2022-12-29T03:50:46.676Z,4.79
2022-12-29T03:50:59.656Z,4.79
2022-12-29T03:51:12.662Z,4.77
2022-12-29T03:51:25.736Z,4.78
2022-12-29T03:51:38.562Z,4.75
2022-12-29T03:52:11.310Z,4.70
2022-12-29T03:52:44.041Z,4.75
2022-12-29T03:53:17.005Z,4.73
2022-12-29T03:53:49.713Z,4.73
2022-12-29T03:54:41.143Z,4.79
2022-12-29T03:55:13.911Z,4.82
2022-12-29T03:55:26.735Z,4.84
2022-12-29T03:55:47.627Z,4.84
2022-12-29T03:56:20.352Z,4.82
2022-12-29T03:56:33.198Z,4.82
2022-12-29T03:57:24.605Z,4.82
2022-12-29T03:57:57.341Z,4.78
2022-12-29T03:58:10.107Z,4.74
2022-12-29T03:58:22.950Z,4.76
2022-12-29T03:58:36.365Z,4.76
2022-12-29T03:59:09.939Z,4.77
2022-12-29T03:59:23.195Z,4.78
2022-12-29T03:59:36.027Z,4.80
2022-12-29T03:59:49.028Z,4.81
2022-12-29T04:00:02.695Z,4.78
2022-12-29T04:00:15.602Z,4.78
2022-12-29T04:00:47.413Z,4.78
2022-12-29T04:01:20.269Z,4.75
2022-12-29T04:01:33.499Z,4.71
2022-12-29T04:01:47.654Z,4.73
2022-12-29T04:02:00.788Z,4.73
2022-12-29T04:02:17.811Z,4.75
2022-12-29T04:02:31.658Z,4.73
2022-12-29T04:02:44.810Z,4.73
2022-12-29T04:03:36.315Z,4.72
2022-12-29T04:04:09.465Z,4.70
2022-12-29T04:04:42.220Z,4.70
2022-12-29T04:05:15.077Z,4.76
2022-12-29T04:06:24.839Z,4.75
2022-12-29T04:06:57.583Z,4.77
2022-12-29T04:07:10.449Z,4.74
2022-12-29T04:07:23.342Z,4.75
2022-12-29T04:08:14.717Z,4.75
2022-12-29T04:08:47.461Z,4.74
2022-12-29T04:09:20.200Z,4.78
2022-12-29T04:09:33.074Z,4.78
2022-12-29T04:09:45.902Z,4.77
2022-12-29T04:10:18.642Z,4.75
2022-12-29T04:11:10.499Z,4.68
2022-12-29T04:11:27.103Z,4.73
2022-12-29T04:11:56.486Z,4.70
2022-12-29T04:12:17.532Z,4.70
2022-12-29T04:12:50.295Z,4.70
2022-12-29T04:13:23.052Z,4.70
2022-12-29T04:13:55.786Z,4.70
2022-12-29T04:14:08.656Z,4.75
2022-12-29T04:14:21.513Z,4.73
2022-12-29T04:14:54.255Z,4.68
2022-12-29T04:15:27.482Z,4.66
2022-12-29T04:15:40.568Z,4.64
2022-12-29T04:15:53.582Z,4.64
2022-12-29T04:16:06.492Z,4.66
2022-12-29T04:16:40.006Z,4.66
2022-12-29T04:17:12.577Z,4.70
2022-12-29T04:17:25.452Z,4.68
2022-12-29T04:17:38.415Z,4.69
2022-12-29T04:17:51.460Z,4.73
2022-12-29T04:18:04.290Z,4.76
2022-12-29T04:18:35.983Z,4.76
2022-12-29T04:18:48.929Z,4.77
2022-12-29T04:19:01.791Z,4.80
2022-12-29T04:19:14.606Z,4.81
2022-12-29T04:19:27.438Z,4.77
2022-12-29T04:20:20.114Z,4.76
2022-12-29T04:21:01.791Z,4.71
2022-12-29T04:21:14.781Z,4.70
2022-12-29T04:21:27.685Z,4.69
2022-12-29T04:21:44.474Z,4.70
2022-12-29T04:21:57.428Z,4.67
2022-12-29T04:22:10.297Z,4.66
2022-12-29T04:23:02.635Z,4.69
2022-12-29T04:23:38.361Z,4.71
2022-12-29T04:24:11.079Z,4.70
2022-12-29T04:24:23.912Z,4.70
2022-12-29T04:24:36.734Z,4.71
2022-12-29T04:24:49.759Z,4.71
2022-12-29T04:25:02.627Z,4.73
2022-12-29T04:25:15.427Z,4.69
2022-12-29T04:25:51.240Z,4.71
2022-12-29T04:26:24.486Z,4.65
2022-12-29T04:26:37.321Z,4.67
2022-12-29T04:27:10.073Z,4.67
2022-12-29T04:27:22.869Z,4.73
2022-12-29T04:27:55.654Z,4.71
2022-12-29T04:28:29.210Z,4.69
2022-12-29T04:29:01.977Z,4.67
2022-12-29T04:29:14.902Z,4.65
2022-12-29T04:29:47.672Z,4.65
2022-12-29T04:30:00.527Z,4.62
2022-12-29T04:30:13.525Z,4.65
2022-12-29T04:30:46.375Z,4.66
2022-12-29T04:31:19.064Z,4.65
2022-12-29T04:31:51.800Z,4.68
2022-12-29T04:32:24.525Z,4.64
2022-12-29T04:32:37.484Z,4.66
2022-12-29T04:32:50.491Z,4.66
2022-12-29T04:33:03.574Z,4.67
2022-12-29T04:33:36.349Z,4.63
2022-12-29T04:34:09.103Z,4.62
2022-12-29T04:34:41.859Z,4.56
2022-12-29T04:35:14.622Z,4.60
2022-12-29T04:35:47.379Z,4.62
2022-12-29T04:36:00.414Z,4.65
2022-12-29T04:36:13.387Z,4.65
2022-12-29T04:36:44.236Z,4.68
2022-12-29T04:37:16.997Z,4.71
2022-12-29T04:37:29.972Z,4.70
2022-12-29T04:38:02.801Z,4.66
2022-12-29T04:38:15.817Z,4.64
2022-12-29T04:38:48.548Z,4.62
2022-12-29T04:39:21.387Z,4.58
2022-12-29T04:39:54.106Z,4.63
2022-12-29T04:40:07.557Z,4.61
2022-12-29T04:41:00.958Z,4.61
2022-12-29T04:41:33.819Z,4.57
2022-12-29T04:41:47.520Z,4.61
2022-12-29T04:42:20.256Z,4.61
2022-12-29T04:42:33.133Z,4.61
2022-12-29T04:43:05.880Z,4.60
2022-12-29T04:43:57.095Z,4.59
2022-12-29T04:44:29.815Z,4.63
2022-12-29T04:45:02.826Z,4.66
2022-12-29T04:45:35.119Z,4.65
2022-12-29T04:46:07.916Z,4.54
2022-12-29T04:46:40.682Z,4.52
2022-12-29T04:46:53.754Z,4.56
2022-12-29T04:47:26.407Z,4.57
2022-12-29T04:48:00.309Z,4.58
2022-12-29T04:48:13.496Z,4.56
2022-12-29T04:48:47.244Z,4.59
2022-12-29T04:49:01.663Z,4.61
2022-12-29T04:49:53.262Z,4.59
2022-12-29T04:50:06.558Z,4.61
2022-12-29T04:50:19.511Z,4.63
2022-12-29T04:50:52.275Z,4.59
2022-12-29T04:51:25.890Z,4.56
2022-12-29T04:51:38.698Z,4.59
2022-12-29T04:51:51.907Z,4.59
2022-12-29T04:52:05.160Z,4.59
2022-12-29T04:52:18.095Z,4.62
2022-12-29T04:52:31.389Z,4.59
2022-12-29T04:53:22.537Z,4.56
2022-12-29T04:53:35.852Z,4.50
2022-12-29T04:53:48.670Z,4.51
2022-12-29T04:54:21.397Z,4.53
2022-12-29T04:54:54.142Z,4.55
2022-12-29T04:55:07.530Z,4.54
2022-12-29T04:55:40.224Z,4.54
2022-12-29T04:55:53.511Z,4.56
2022-12-29T04:56:26.211Z,4.57
2022-12-29T04:56:58.942Z,4.61
2022-12-29T04:57:11.993Z,4.60
2022-12-29T04:57:24.895Z,4.60
2022-12-29T04:57:37.953Z,4.62
2022-12-29T04:57:50.856Z,4.57
2022-12-29T04:58:03.751Z,4.60
2022-12-29T04:58:22.599Z,4.58
2022-12-29T04:58:50.480Z,4.59
2022-12-29T04:59:03.357Z,4.49
2022-12-29T04:59:54.753Z,4.53
2022-12-29T05:00:46.361Z,4.52
2022-12-29T05:00:59.468Z,4.55
2022-12-29T05:01:32.278Z,4.57
2022-12-29T05:01:45.254Z,4.62
2022-12-29T05:02:18.719Z,4.60
2022-12-29T05:02:50.964Z,4.60
2022-12-29T05:03:23.607Z,4.60
2022-12-29T05:03:37.130Z,4.58
2022-12-29T05:03:52.166Z,4.59
2022-12-29T05:04:24.834Z,4.58
2022-12-29T05:04:41.544Z,4.63
2022-12-29T05:05:32.736Z,4.65
2022-12-29T05:05:45.563Z,4.64
2022-12-29T05:05:58.454Z,4.62
2022-12-29T05:06:11.369Z,4.64
2022-12-29T05:06:25.413Z,4.67
2022-12-29T05:06:38.272Z,4.67
2022-12-29T05:07:11.082Z,4.66
2022-12-29T05:07:43.835Z,4.61
2022-12-29T05:07:56.669Z,4.61
2022-12-29T05:08:30.426Z,4.60
2022-12-29T05:08:43.344Z,4.57
2022-12-29T05:09:16.084Z,4.57
2022-12-29T05:09:48.840Z,4.56
2022-12-29T05:10:09.838Z,4.58
2022-12-29T05:10:46.631Z,4.56
2022-12-29T05:11:38.189Z,4.61
2022-12-29T05:12:09.950Z,4.60
2022-12-29T05:12:42.717Z,4.58
2022-12-29T05:12:56.001Z,4.56
2022-12-29T05:13:08.865Z,4.60
2022-12-29T05:13:21.730Z,4.59
2022-12-29T05:13:34.599Z,4.59
2022-12-29T05:13:47.876Z,4.59
2022-12-29T05:14:20.616Z,4.55
2022-12-29T05:14:33.490Z,4.54
2022-12-29T05:14:46.237Z,4.54
2022-12-29T05:14:59.461Z,4.58
2022-12-29T05:15:12.459Z,4.55
2022-12-29T05:15:25.419Z,4.56
2022-12-29T05:15:38.284Z,4.54
2022-12-29T05:15:52.289Z,4.56
2022-12-29T05:16:24.985Z,4.58
2022-12-29T05:16:37.907Z,4.57
2022-12-29T05:16:51.164Z,4.58
2022-12-29T05:17:04.021Z,4.55
2022-12-29T05:17:16.854Z,4.61
2022-12-29T05:17:30.548Z,4.61
2022-12-29T05:17:43.383Z,4.60
2022-12-29T05:18:16.127Z,4.60
2022-12-29T05:18:29.004Z,4.61
2022-12-29T05:19:20.821Z,4.58
2022-12-29T05:19:53.578Z,4.57
2022-12-29T05:20:45.449Z,4.51
2022-12-29T05:20:58.327Z,4.51
2022-12-29T05:21:11.205Z,4.49
2022-12-29T05:21:24.041Z,4.48
2022-12-29T05:21:53.316Z,4.50
2022-12-29T05:22:24.623Z,4.51
2022-12-29T05:22:37.525Z,4.53
2022-12-29T05:22:50.859Z,4.55
2022-12-29T05:23:03.759Z,4.51
2022-12-29T05:23:36.548Z,4.48
2022-12-29T05:24:10.230Z,4.46
2022-12-29T05:24:42.968Z,4.54
2022-12-29T05:24:55.788Z,4.53
2022-12-29T05:25:09.740Z,4.53
2022-12-29T05:26:00.994Z,4.50
2022-12-29T05:26:13.837Z,4.55
2022-12-29T05:26:46.580Z,4.56
2022-12-29T05:27:38.413Z,4.51
2022-12-29T05:27:51.226Z,4.54
2022-12-29T05:28:04.240Z,4.53
2022-12-29T05:28:37.048Z,4.49
2022-12-29T05:29:28.591Z,4.48
2022-12-29T05:30:01.320Z,4.55
2022-12-29T05:30:14.218Z,4.54
2022-12-29T05:30:27.175Z,4.52
2022-12-29T05:30:40.188Z,4.50
2022-12-29T05:31:12.998Z,4.49
2022-12-29T05:31:25.961Z,4.53
2022-12-29T05:31:58.672Z,4.52
2022-12-29T05:32:31.405Z,4.49
2022-12-29T05:32:44.232Z,4.49
2022-12-29T05:32:57.032Z,4.51
2022-12-29T05:33:12.647Z,4.48
2022-12-29T05:34:04.225Z,4.48
2022-12-29T05:34:17.164Z,4.44
2022-12-29T05:34:30.004Z,4.43
2022-12-29T05:35:21.480Z,4.46
2022-12-29T05:35:34.622Z,4.50
2022-12-29T05:36:09.162Z,4.50
2022-12-29T05:36:22.077Z,4.49
2022-12-29T05:36:37.985Z,4.45
2022-12-29T05:36:51.563Z,4.45
2022-12-29T05:37:04.480Z,4.47
2022-12-29T05:37:37.241Z,4.50
2022-12-29T05:37:50.091Z,4.51
2022-12-29T05:38:22.878Z,4.52
2022-12-29T05:38:53.846Z,4.54
2022-12-29T05:39:26.567Z,4.53
2022-12-29T05:40:00.310Z,4.51
2022-12-29T05:40:13.162Z,4.47
2022-12-29T05:40:26.030Z,4.49
2022-12-29T05:40:38.869Z,4.52
2022-12-29T05:40:52.129Z,4.51
2022-12-29T05:41:05.416Z,4.50
2022-12-29T05:41:18.336Z,4.46
2022-12-29T05:41:52.885Z,4.47
2022-12-29T05:42:25.620Z,4.53
2022-12-29T05:42:38.424Z,4.55
2022-12-29T05:42:51.268Z,4.53
2022-12-29T05:43:04.145Z,4.56
2022-12-29T05:43:17.004Z,4.55
2022-12-29T05:43:31.656Z,4.54
2022-12-29T05:44:04.515Z,4.57
2022-12-29T05:44:38.240Z,4.51
2022-12-29T05:45:11.247Z,4.53
2022-12-29T05:45:24.530Z,4.57
2022-12-29T05:45:37.550Z,4.55
2022-12-29T05:45:50.863Z,4.55
2022-12-29T05:46:04.187Z,4.57
2022-12-29T05:46:36.960Z,4.55
2022-12-29T05:46:49.929Z,4.57
2022-12-29T05:47:22.603Z,4.56
2022-12-29T05:47:45.090Z,4.52
2022-12-29T05:47:57.956Z,4.47
2022-12-29T05:48:10.870Z,4.46
2022-12-29T05:48:23.696Z,4.44
2022-12-29T05:48:38.332Z,4.49
2022-12-29T05:48:51.304Z,4.47
2022-12-29T05:49:24.053Z,4.48
2022-12-29T05:49:37.100Z,4.47
2022-12-29T05:50:09.852Z,4.49
2022-12-29T05:50:22.800Z,4.53
2022-12-29T05:50:55.519Z,4.51
2022-12-29T05:51:08.421Z,4.47
2022-12-29T05:52:00.491Z,4.50
2022-12-29T05:52:33.213Z,4.43
2022-12-29T05:52:46.562Z,4.48
2022-12-29T05:52:59.496Z,4.46
2022-12-29T05:53:12.356Z,4.48
2022-12-29T05:53:25.167Z,4.48
2022-12-29T05:53:38.038Z,4.51
2022-12-29T05:54:10.776Z,4.49
2022-12-29T05:54:43.519Z,4.45
2022-12-29T05:55:16.291Z,4.41
2022-12-29T05:55:49.392Z,4.35
2022-12-29T05:56:02.226Z,4.38
2022-12-29T05:56:15.062Z,4.38
2022-12-29T05:56:28.041Z,4.37
2022-12-29T05:56:59.559Z,4.38
2022-12-29T05:57:12.357Z,4.36
2022-12-29T05:57:47.125Z,4.35
2022-12-29T05:58:00.367Z,4.34
2022-12-29T05:58:13.365Z,4.36
2022-12-29T05:58:26.663Z,4.37
2022-12-29T05:58:59.421Z,4.37
2022-12-29T05:59:32.213Z,4.36
2022-12-29T06:00:05.950Z,4.38
2022-12-29T06:00:38.691Z,4.36
2022-12-29T06:00:53.728Z,4.35
2022-12-29T06:01:26.585Z,4.36
2022-12-29T06:01:39.494Z,4.34
2022-12-29T06:02:12.359Z,4.35
2022-12-29T06:02:25.515Z,4.37
2022-12-29T06:02:38.597Z,4.34
2022-12-29T06:02:59.904Z,4.34
2022-12-29T06:03:32.555Z,4.34
2022-12-29T06:04:07.199Z,4.37
2022-12-29T06:04:39.917Z,4.40
2022-12-29T06:05:12.665Z,4.45
2022-12-29T06:05:48.039Z,4.44
2022-12-29T06:06:20.594Z,4.41
2022-12-29T06:06:33.514Z,4.39
2022-12-29T06:06:46.398Z,4.39
2022-12-29T06:07:19.178Z,4.38
2022-12-29T06:07:32.494Z,4.36
2022-12-29T06:08:05.470Z,4.39
2022-12-29T06:08:38.211Z,4.37
2022-12-29T06:08:51.061Z,4.30
2022-12-29T06:09:03.905Z,4.30
2022-12-29T06:09:36.641Z,4.30
2022-12-29T06:10:09.520Z,4.37
2022-12-29T06:10:42.252Z,4.41
2022-12-29T06:11:15.033Z,4.40
2022-12-29T06:11:47.769Z,4.44
2022-12-29T06:12:00.629Z,4.40
2022-12-29T06:12:52.602Z,4.38
2022-12-29T06:13:06.556Z,4.39
2022-12-29T06:13:39.321Z,4.37
2022-12-29T06:14:12.090Z,4.34
2022-12-29T06:14:43.975Z,4.30
2022-12-29T06:14:57.022Z,4.32
2022-12-29T06:15:10.251Z,4.32
2022-12-29T06:15:23.232Z,4.29
2022-12-29T06:15:56.028Z,4.32
2022-12-29T06:16:28.816Z,4.35
2022-12-29T06:17:02.457Z,4.38
2022-12-29T06:17:36.362Z,4.38
2022-12-29T06:18:10.800Z,4.38
2022-12-29T06:18:26.020Z,4.37
2022-12-29T06:18:38.883Z,4.40
2022-12-29T06:18:51.922Z,4.39
2022-12-29T06:19:24.794Z,4.39
2022-12-29T06:19:37.657Z,4.39
2022-12-29T06:19:50.607Z,4.41
2022-12-29T06:20:23.346Z,4.41
2022-12-29T06:20:36.238Z,4.41
2022-12-29T06:20:49.154Z,4.41
2022-12-29T06:21:02.762Z,4.39
2022-12-29T06:21:15.607Z,4.37
2022-12-29T06:21:48.426Z,4.38
2022-12-29T06:22:21.175Z,4.39
2022-12-29T06:22:34.504Z,4.37
2022-12-29T06:23:07.245Z,4.36
2022-12-29T06:23:39.973Z,4.35
2022-12-29T06:24:12.725Z,4.38
2022-12-29T06:24:25.573Z,4.39
2022-12-29T06:25:04.373Z,4.38
2022-12-29T06:25:33.270Z,4.38
2022-12-29T06:26:05.781Z,4.35
2022-12-29T06:26:18.687Z,4.36
2022-12-29T06:26:31.656Z,4.37
2022-12-29T06:27:04.411Z,4.36
2022-12-29T06:27:17.297Z,4.31
2022-12-29T06:27:50.698Z,4.32
2022-12-29T06:28:23.492Z,4.33
2022-12-29T06:28:36.334Z,4.31
2022-12-29T06:29:09.385Z,4.32
2022-12-29T06:29:42.174Z,4.29
2022-12-29T06:29:55.058Z,4.29
2022-12-29T06:30:10.115Z,4.28
2022-12-29T06:30:23.079Z,4.27
2022-12-29T06:30:36.742Z,4.33
2022-12-29T06:31:11.405Z,4.33
2022-12-29T06:31:46.660Z,4.37
2022-12-29T06:32:19.184Z,4.32
2022-12-29T06:32:52.248Z,4.31
2022-12-29T06:33:25.037Z,4.38
2022-12-29T06:33:57.774Z,4.45
2022-12-29T06:34:10.625Z,4.42
2022-12-29T06:34:23.633Z,4.43
2022-12-29T06:34:56.372Z,4.36
2022-12-29T06:35:29.182Z,4.35
2022-12-29T06:35:43.859Z,4.36
2022-12-29T06:36:16.727Z,4.35
2022-12-29T06:36:49.254Z,4.30
2022-12-29T06:37:02.750Z,4.33
2022-12-29T06:37:15.773Z,4.34
2022-12-29T06:37:28.806Z,4.34
2022-12-29T06:38:01.553Z,4.35
2022-12-29T06:38:14.391Z,4.35
2022-12-29T06:38:47.166Z,4.36
2022-12-29T06:39:00.184Z,4.37
2022-12-29T06:39:13.094Z,4.37
2022-12-29T06:39:26.682Z,4.37
2022-12-29T06:39:59.362Z,4.35
2022-12-29T06:40:12.851Z,4.35
2022-12-29T06:40:34.818Z,4.35
2022-12-29T06:41:32.005Z,4.39
2022-12-29T06:41:58.474Z,4.39
2022-12-29T06:42:11.141Z,4.40
2022-12-29T06:42:24.085Z,4.41
2022-12-29T06:42:57.177Z,4.40
2022-12-29T06:43:10.129Z,4.44
2022-12-29T06:43:22.934Z,4.44
2022-12-29T06:43:55.656Z,4.40
2022-12-29T06:44:28.455Z,4.38
2022-12-29T06:45:01.949Z,4.40
2022-12-29T06:45:34.630Z,4.43
2022-12-29T06:45:47.883Z,4.43
2022-12-29T06:46:00.882Z,4.37
2022-12-29T06:46:33.525Z,4.43
2022-12-29T06:46:46.874Z,4.40
2022-12-29T06:46:59.758Z,4.42
2022-12-29T06:47:12.634Z,4.46
2022-12-29T06:47:26.073Z,4.44
2022-12-29T06:47:59.271Z,4.41
2022-12-29T06:48:12.182Z,4.43
2022-12-29T06:49:03.455Z,4.37
2022-12-29T06:49:16.700Z,4.37
2022-12-29T06:49:30.112Z,4.36
2022-12-29T06:50:02.850Z,4.33
2022-12-29T06:50:15.741Z,4.39
2022-12-29T06:50:48.999Z,4.36
2022-12-29T06:51:01.843Z,4.31
2022-12-29T06:51:36.044Z,4.29
2022-12-29T06:51:48.872Z,4.31
2022-12-29T06:52:09.098Z,4.35
2022-12-29T06:52:38.338Z,4.36
2022-12-29T06:52:51.192Z,4.43
2022-12-29T06:53:04.089Z,4.40
2022-12-29T06:53:37.089Z,4.42
2022-12-29T06:53:49.938Z,4.43
2022-12-29T06:54:02.905Z,4.40
2022-12-29T06:54:15.764Z,4.36
2022-12-29T06:54:29.079Z,4.37
2022-12-29T06:54:42.316Z,4.35
2022-12-29T06:54:55.689Z,4.35
2022-12-29T06:55:09.249Z,4.33
2022-12-29T06:55:22.313Z,4.38
2022-12-29T06:55:55.281Z,4.36
2022-12-29T06:56:28.772Z,4.38
2022-12-29T06:56:46.113Z,4.40
2022-12-29T06:56:59.710Z,4.38
2022-12-29T06:57:32.460Z,4.39
2022-12-29T06:58:05.200Z,4.38
2022-12-29T06:58:36.622Z,4.37
2022-12-29T06:59:10.383Z,4.38
2022-12-29T06:59:23.392Z,4.35
2022-12-29T06:59:36.236Z,4.34
2022-12-29T06:59:49.101Z,4.32
2022-12-29T07:00:23.191Z,4.31
2022-12-29T07:00:54.889Z,4.35
2022-12-29T07:01:08.067Z,4.34